ADT weather

Ada Regional Airport
Ada, Oklahoma, United States

Public forecast

Using degrees Fahrenheit for public forecast. Weather courtesy of forecast.io.

Current aviation weather report (METAR) for Ada Regional Airport

Retrieved 2020/06/05 11:55 UTC (21 minutes ago):

KADH 051155Z AUTO 00000KT 10SM CLR 21/16 A2991 RMK AO2

Closest aviation forecast (TAF) to Ada Regional Airport

Closest forecast is Mc Alester Regional Airport, 44.0 nm (81.5 km) E. Retrieved 2020/06/05 12:27 UTC (0 seconds ago):

TAF KMLC 051124Z 0512/0612 17006KT P6SM FEW100 FM052000 20006KT P6SM FEW045 FM060800 18004KT P6SM FEW250